Time;durP1;ratioP1;P1;durP2;ratioP2;P2;SDS_P1;SDS_P2;PMS_P1;PMS_P2;Temp;Humidity;BMP_temperature;BMP_pressure;BME280_temperature;BME280_humidity;BME280_pressure;Samples;Min_cycle;Max_cycle;Signal;HPM_P1;HPM_P2
2021/06/10 00:00:10;;;;;;;14.48;7.10;;;;;;;-141.86;100.00;57692.91;5051025;28;20070;-77
2021/06/10 00:02:38;;;;;;;18.08;7.68;;;;;;;-141.86;100.00;57692.91;5048075;28;20077;-78
2021/06/10 00:05:06;;;;;;;17.33;7.43;;;;;;;-141.86;100.00;57692.91;5028286;28;20534;-77
2021/06/10 00:07:33;;;;;;;12.82;8.18;;;;;;;-141.86;100.00;57692.91;5037777;28;20048;-77
2021/06/10 00:09:59;;;;;;;16.70;8.30;;;;;;;-141.86;100.00;57692.91;5002485;28;20446;-77
2021/06/10 00:12:25;;;;;;;16.75;7.30;;;;;;;-141.86;100.00;57692.91;5046114;28;20501;-77
2021/06/10 00:14:51;;;;;;;20.02;7.72;;;;;;;-141.86;100.00;57692.91;5010985;28;20087;-83
2021/06/10 00:17:18;;;;;;;22.25;7.57;;;;;;;-141.86;100.00;57692.91;5029248;28;20068;-75
2021/06/10 00:19:44;;;;;;;22.67;7.35;;;;;;;-141.86;100.00;57692.91;5045312;28;20040;-77
2021/06/10 00:22:10;;;;;;;19.20;7.60;;;;;;;-141.86;100.00;57692.91;5049607;28;20048;-75
2021/06/10 00:24:36;;;;;;;21.35;8.43;;;;;;;-141.86;100.00;57692.91;5052215;28;20524;-77
2021/06/10 00:27:03;;;;;;;11.90;7.32;;;;;;;-141.86;100.00;57692.91;5036033;28;20037;-75
2021/06/10 00:29:29;;;;;;;21.55;8.35;;;;;;;-141.86;100.00;57692.91;5029948;28;20052;-77
2021/06/10 00:31:55;;;;;;;15.82;7.90;;;;;;;-141.86;100.00;57692.91;5029548;28;20049;-79
2021/06/10 00:34:25;;;;;;;20.63;8.27;;;;;;;-141.86;100.00;57692.91;5018814;28;20592;-77
2021/06/10 00:36:51;;;;;;;18.63;8.15;;;;;;;-141.86;100.00;57692.91;5044451;28;20041;-78
2021/06/10 00:39:17;;;;;;;19.73;8.27;;;;;;;-141.86;100.00;57692.91;5066595;28;20384;-78
2021/06/10 00:41:43;;;;;;;21.27;8.50;;;;;;;-141.86;100.00;57692.91;5015017;28;20032;-79
2021/06/10 00:44:10;;;;;;;16.25;7.25;;;;;;;-141.86;100.00;57692.91;5056063;28;20040;-77
2021/06/10 00:46:36;;;;;;;20.33;8.27;;;;;;;-141.86;100.00;57692.91;5029693;28;20116;-78
2021/06/10 00:49:03;;;;;;;23.33;8.80;;;;;;;-141.86;100.00;57692.91;5031716;28;20585;-79
2021/06/10 00:51:30;;;;;;;24.92;8.73;;;;;;;-141.86;100.00;57692.91;5065863;28;20044;-79
2021/06/10 00:54:00;;;;;;;21.63;8.13;;;;;;;-141.86;100.00;57692.91;5048495;28;20286;-79
2021/06/10 00:56:26;;;;;;;29.38;8.13;;;;;;;-141.86;100.00;57692.91;5033164;28;20064;-77
2021/06/10 00:58:54;;;;;;;22.52;8.43;;;;;;;-141.86;100.00;57692.91;5042499;28;20055;-77
2021/06/10 01:01:20;;;;;;;23.50;8.40;;;;;;;-141.86;100.00;57692.91;5021945;28;20082;-77
2021/06/10 01:03:46;;;;;;;21.45;8.30;;;;;;;-141.86;100.00;57692.91;5028261;28;20075;-75
2021/06/10 01:06:28;;;;;;;20.02;8.63;;;;;;;-141.86;100.00;57692.91;5049279;28;20076;-75
2021/06/10 01:09:03;;;;;;;26.73;7.72;;;;;;;-141.86;100.00;57692.91;5031029;28;20095;-74
2021/06/10 01:11:44;;;;;;;21.42;8.82;;;;;;;-141.86;100.00;57692.91;5022457;28;20519;-77
2021/06/10 01:14:17;;;;;;;16.08;8.55;;;;;;;-141.86;100.00;57692.91;5029374;28;20051;-75
2021/06/10 01:16:46;;;;;;;20.13;8.63;;;;;;;-141.86;100.00;57692.91;5032278;28;20103;-74
2021/06/10 01:19:21;;;;;;;21.83;8.15;;;;;;;-141.86;100.00;57692.91;5052125;28;20053;-74
2021/06/10 01:21:49;;;;;;;18.17;8.43;;;;;;;-141.86;100.00;57692.91;5035335;28;20041;-73
2021/06/10 01:24:47;;;;;;;18.65;8.00;;;;;;;-141.86;100.00;57692.91;5051413;28;20056;-74
2021/06/10 01:27:26;;;;;;;17.90;7.82;;;;;;;-141.86;100.00;57692.91;5048469;28;20051;-80
2021/06/10 01:29:59;;;;;;;20.65;8.48;;;;;;;-141.86;100.00;57692.91;5054937;28;20040;-78
2021/06/10 01:32:27;;;;;;;20.48;9.55;;;;;;;-141.86;100.00;57692.91;5024018;28;20477;-74
2021/06/10 01:34:56;;;;;;;16.98;8.20;;;;;;;-141.86;100.00;57692.91;5057225;28;20047;-78
2021/06/10 01:37:22;;;;;;;18.17;8.40;;;;;;;-141.86;100.00;57692.91;5056092;28;20036;-79
2021/06/10 01:39:50;;;;;;;31.17;9.48;;;;;;;-141.86;100.00;57692.91;5057777;28;20045;-78
2021/06/10 01:42:18;;;;;;;23.95;9.30;;;;;;;-141.86;100.00;57692.91;5054234;28;20047;-80
2021/06/10 01:44:47;;;;;;;19.90;9.10;;;;;;;-141.86;100.00;57692.91;5048696;28;20041;-78
2021/06/10 01:47:17;;;;;;;21.85;9.63;;;;;;;-141.86;100.00;57692.91;5055716;28;20110;-79
2021/06/10 01:49:43;;;;;;;23.75;9.35;;;;;;;-141.86;100.00;57692.91;5055277;28;20048;-80
2021/06/10 01:52:20;;;;;;;28.20;9.43;;;;;;;;;;5108142;27;20403;-79
2021/06/10 01:54:46;;;;;;;24.40;9.68;;;;;;;;;;5056212;28;20137;-79
2021/06/10 01:57:13;;;;;;;24.77;11.10;;;;;;;;;;5092035;28;20047;-77
2021/06/10 01:59:39;;;;;;;26.92;10.63;;;;;;;;;;5090051;28;20061;-78
2021/06/10 02:02:06;;;;;;;23.48;10.73;;;;;;;;;;5088582;28;20044;-77
2021/06/10 02:04:33;;;;;;;28.25;9.80;;;;;;;;;;5093493;28;20042;-78
2021/06/10 02:06:59;;;;;;;27.63;10.88;;;;;;;;;;5068577;28;20382;-78
2021/06/10 02:09:25;;;;;;;25.45;11.07;;;;;;;;;;5090917;28;20032;-79
2021/06/10 02:11:51;;;;;;;23.77;10.43;;;;;;;;;;5093322;28;20055;-79
2021/06/10 02:14:18;;;;;;;22.10;10.10;;;;;;;;;;5085848;28;20057;-77
2021/06/10 02:16:45;;;;;;;24.65;11.00;;;;;;;;;;5088663;28;20093;-78
2021/06/10 02:19:12;;;;;;;25.67;11.27;;;;;;;;;;5093096;28;20032;-78
2021/06/10 02:21:37;;;;;;;25.48;11.13;;;;;;;;;;5103735;28;20031;-79
2021/06/10 02:24:04;;;;;;;23.65;11.30;;;;;;;;;;5086083;28;20032;-79
2021/06/10 02:26:30;;;;;;;29.70;10.93;;;;;;;;;;5092020;28;20040;-78
2021/06/10 02:28:55;;;;;;;31.95;10.75;;;;;;;;;;5093837;28;20104;-78
2021/06/10 02:31:21;;;;;;;32.33;11.20;;;;;;;;;;5102995;28;20126;-79
2021/06/10 02:33:47;;;;;;;26.20;10.98;;;;;;;;;;5071072;28;20039;-79
2021/06/10 02:36:17;;;;;;;23.25;11.15;;;;;;;;;;5099454;28;20032;-79
2021/06/10 02:38:46;;;;;;;28.92;11.45;;;;;;;;;;5083519;28;20044;-80
2021/06/10 02:41:15;;;;;;;30.63;11.25;;;;;;;;;;5066920;28;20035;-78
2021/06/10 02:43:41;;;;;;;29.98;11.38;;;;;;;;;;5081411;28;20032;-78
2021/06/10 02:46:08;;;;;;;28.25;10.77;;;;;;;;;;5084622;28;20036;-79
2021/06/10 02:48:34;;;;;;;24.67;10.88;;;;;;;;;;5049931;28;20071;-78
2021/06/10 02:51:00;;;;;;;26.80;10.80;;;;;;;;;;5062551;28;20056;-79
2021/06/10 02:53:28;;;;;;;27.15;10.40;;;;;;;;;;5065396;28;20024;-80
2021/06/10 02:55:54;;;;;;;29.27;10.63;;;;;;;;;;5061138;28;20041;-80
2021/06/10 02:58:21;;;;;;;22.35;10.30;;;;;;;;;;5057439;28;20036;-78
2021/06/10 03:00:48;;;;;;;38.33;10.68;;;;;;;;;;5073596;28;21990;-79
2021/06/10 03:03:14;;;;;;;23.08;10.18;;;;;;;;;;5068183;28;20048;-78
2021/06/10 03:05:40;;;;;;;29.20;10.70;;;;;;;;;;5059824;28;20040;-79
2021/06/10 03:08:07;;;;;;;29.02;10.02;;;;;;;;;;5045144;28;20073;-79
2021/06/10 03:10:33;;;;;;;26.05;9.50;;;;;;;;;;5053739;28;20045;-79
2021/06/10 03:13:01;;;;;;;22.65;9.30;;;;;;;;;;5046596;28;20590;-83
2021/06/10 03:15:29;;;;;;;22.80;9.23;;;;;;;;;;5035346;28;20032;-84
2021/06/10 03:17:55;;;;;;;22.50;9.98;;;;;;;;;;5057035;28;20036;-77
2021/06/10 03:20:20;;;;;;;21.75;9.77;;;;;;;;;;5058517;28;20044;-80
2021/06/10 03:22:46;;;;;;;19.02;9.95;;;;;;;;;;5031092;28;20043;-78
2021/06/10 03:25:13;;;;;;;24.42;9.60;;;;;;;;;;5046268;28;20533;-80
2021/06/10 03:27:39;;;;;;;21.85;9.40;;;;;;;;;;5046431;28;20135;-80
2021/06/10 03:30:06;;;;;;;20.10;9.73;;;;;;;;;;5061090;28;20043;-80
2021/06/10 03:32:32;;;;;;;19.88;9.98;;;;;;;;;;5064403;28;20071;-80
2021/06/10 03:34:58;;;;;;;18.13;9.20;;;;;;;;;;5052468;28;20082;-81
2021/06/10 03:37:24;;;;;;;20.35;9.30;;;;;;;;;;5047999;28;20033;-79
2021/06/10 03:39:52;;;;;;;22.33;9.07;;;;;;;;;;5067274;28;20103;-80
2021/06/10 03:42:20;;;;;;;17.88;8.63;;;;;;;;;;5047187;28;20631;-81
2021/06/10 03:44:47;;;;;;;17.85;9.15;;;;;;;;;;5057500;28;20060;-82
2021/06/10 03:47:15;;;;;;;22.70;9.18;;;;;;;;;;5055039;28;20043;-83
2021/06/10 03:49:42;;;;;;;18.15;9.10;;;;;;;;;;5050850;28;20097;-83
2021/06/10 03:52:08;;;;;;;20.45;9.27;;;;;;;;;;5064186;28;20485;-80
2021/06/10 03:54:34;;;;;;;23.42;9.88;;;;;;;;;;5066502;28;20407;-82
2021/06/10 03:57:03;;;;;;;21.45;9.30;;;;;;;;;;5054762;28;20451;-82
2021/06/10 03:59:34;;;;;;;20.02;9.75;;;;;;;;;;5055129;28;20041;-81
2021/06/10 04:02:05;;;;;;;25.95;9.85;;;;;;;;;;5048902;28;20128;-82
2021/06/10 04:04:37;;;;;;;24.33;10.27;;;;;;;;;;5046373;28;20405;-82
2021/06/10 04:07:04;;;;;;;26.35;10.73;;;;;;;;;;5038296;28;20151;-81
2021/06/10 04:09:30;;;;;;;27.10;10.18;;;;;;;;;;5029127;28;20048;-80
2021/06/10 04:11:56;;;;;;;18.70;10.40;;;;;;;;;;5063999;28;20041;-82
2021/06/10 04:14:22;;;;;;;24.67;10.82;;;;;;;;;;5047616;28;20033;-78
2021/06/10 04:16:48;;;;;;;18.73;9.65;;;;;;;;;;5056089;28;20037;-80
2021/06/10 04:19:14;;;;;;;19.88;9.93;;;;;;;;;;5057171;28;20464;-80
2021/06/10 04:21:40;;;;;;;21.23;9.98;;;;;;;;;;5051105;28;20087;-80
2021/06/10 04:24:09;;;;;;;17.25;9.90;;;;;;;;;;5060138;28;20043;-81
2021/06/10 04:26:34;;;;;;;19.65;10.02;;;;;;;;;;5046132;28;20033;-81
2021/06/10 04:29:00;;;;;;;16.50;9.38;;;;;;;;;;5056184;28;20052;-82
2021/06/10 04:31:26;;;;;;;18.98;9.65;;;;;;;;;;5045715;28;20416;-78
2021/06/10 04:33:52;;;;;;;22.45;10.65;;;;;;;;;;5062807;28;20081;-77
2021/06/10 04:36:17;;;;;;;20.13;9.88;;;;;;;;;;5058915;28;20032;-79
2021/06/10 04:38:43;;;;;;;23.08;10.57;;;;;;;;;;5058656;28;20071;-81
2021/06/10 04:41:10;;;;;;;22.02;10.63;;;;;;;;;;5060544;28;20617;-81
2021/06/10 04:43:35;;;;;;;26.23;9.52;;;;;;;;;;5050566;28;20124;-83
2021/06/10 04:46:04;;;;;;;23.42;9.32;;;;;;;;;;5055871;28;20040;-81
2021/06/10 04:48:32;;;;;;;18.33;8.95;;;;;;;;;;5064269;28;20504;-82
2021/06/10 04:50:58;;;;;;;16.42;9.18;;;;;;;;;;5048599;28;20079;-82
2021/06/10 04:53:25;;;;;;;18.23;9.50;;;;;;;;;;5045514;28;20468;-78
2021/06/10 04:55:50;;;;;;;15.52;9.32;;;;;;;;;;5044454;28;20064;-77
2021/06/10 04:58:17;;;;;;;17.55;8.80;;;;;;;;;;5062298;28;20097;-76
2021/06/10 05:00:43;;;;;;;15.45;9.52;;;;;;;;;;5047452;28;20033;-77
2021/06/10 05:03:11;;;;;;;17.63;8.57;;;;;;;;;;5062980;28;20457;-79
2021/06/10 05:05:39;;;;;;;17.05;8.85;;;;;;;;;;5059213;28;20141;-79
2021/06/10 05:08:05;;;;;;;15.95;8.07;;;;;;;;;;5038439;28;20385;-81
2021/06/10 05:10:35;;;;;;;17.85;8.73;;;;;;;;;;5061931;28;20037;-81
2021/06/10 05:13:02;;;;;;;18.52;8.68;;;;;;;;;;5043009;28;20195;-79
2021/06/10 05:15:31;;;;;;;18.08;8.07;;;;;;;;;;5028447;28;20048;-81
2021/06/10 05:18:04;;;;;;;16.60;8.73;;;;;;;;;;5043988;28;20048;-81
2021/06/10 05:20:30;;;;;;;14.38;8.95;;;;;;;;;;5045124;28;20037;-81
2021/06/10 05:22:57;;;;;;;16.50;8.30;;;;;;;;;;5052942;28;20163;-83
2021/06/10 05:25:26;;;;;;;18.23;8.48;;;;;;;;;;5043293;28;20132;-83
2021/06/10 05:27:55;;;;;;;15.25;8.88;;;;;;;;;;5022437;28;20468;-82
2021/06/10 05:30:21;;;;;;;16.08;8.68;;;;;;;;;;5055348;28;20051;-82
2021/06/10 05:32:54;;;;;;;16.13;7.95;;;;;;;;;;5046514;28;20186;-82
2021/06/10 05:35:23;;;;;;;21.25;8.65;;;;;;;;;;5041127;28;20454;-82
2021/06/10 05:37:52;;;;;;;20.83;8.63;;;;;;;;;;5033636;28;20060;-82
2021/06/10 05:40:18;;;;;;;15.20;8.55;;;;;;;;;;5064207;28;20025;-82
2021/06/10 05:42:46;;;;;;;19.45;8.52;;;;;;;;;;5040024;28;20158;-82
2021/06/10 05:45:16;;;;;;;18.55;7.90;;;;;;;;;;5044679;28;20033;-86
2021/06/10 05:47:43;;;;;;;14.93;7.32;;;;;;;;;;5059807;28;20443;-85
2021/06/10 05:50:09;;;;;;;16.23;7.90;;;;;;;;;;5064315;28;20123;-78
2021/06/10 05:52:35;;;;;;;14.80;7.82;;;;;;;;;;5059066;28;20524;-81
2021/06/10 05:55:01;;;;;;;17.85;8.43;;;;;;;;;;5060349;28;20032;-78
2021/06/10 05:57:31;;;;;;;16.38;10.35;;;;;;;;;;5045016;28;20111;-83
2021/06/10 05:59:56;;;;;;;15.63;8.82;;;;;;;;;;5031653;28;20374;-83
2021/06/10 06:02:22;;;;;;;19.17;8.80;;;;;;;;;;5045620;28;20132;-81
2021/06/10 06:04:48;;;;;;;15.60;8.25;;;;;;;;;;5050811;28;20108;-85
2021/06/10 06:07:18;;;;;;;21.10;8.15;;;;;;;;;;5068935;28;20103;-81
2021/06/10 06:09:44;;;;;;;18.15;8.65;;;;;;;;;;5065595;28;20064;-82
2021/06/10 06:12:11;;;;;;;17.80;9.00;;;;;;;;;;5052693;28;20041;-81
2021/06/10 06:14:38;;;;;;;18.67;8.25;;;;;;;;;;5050595;28;20048;-79
2021/06/10 06:17:05;;;;;;;17.48;8.60;;;;;;;;;;5054373;28;20494;-79
2021/06/10 06:19:36;;;;;;;17.33;9.32;;;;;;;;;;5036500;28;20047;-80
2021/06/10 06:22:03;;;;;;;14.65;8.13;;;;;;;;;;5060700;28;20123;-85
2021/06/10 06:24:31;;;;;;;17.85;8.90;;;;;;;;;;5048172;28;20062;-84
2021/06/10 06:26:59;;;;;;;19.05;9.57;;;;;;;;;;5058490;28;20137;-80
2021/06/10 06:29:29;;;;;;;16.55;8.88;;;;;;;;;;5064216;28;20028;-88
2021/06/10 06:31:58;;;;;;;14.57;8.52;;;;;;;;;;5067910;28;20135;-86
2021/06/10 06:34:24;;;;;;;14.80;7.97;;;;;;;;;;5045258;28;20064;-82
2021/06/10 06:36:50;;;;;;;20.83;8.65;;;;;;;;;;5055416;28;20068;-85
2021/06/10 06:39:19;;;;;;;18.25;8.27;;;;;;;;;;5044637;28;20477;-85
2021/06/10 06:41:45;;;;;;;13.75;8.00;;;;;;;;;;5069176;28;20031;-85
2021/06/10 06:44:11;;;;;;;21.67;7.97;;;;;;;;;;5086201;28;20127;-85
2021/06/10 06:46:37;;;;;;;16.52;8.35;;;;;;;;;;5068092;28;20041;-82
2021/06/10 06:49:03;;;;;;;13.73;7.10;;;;;;;;;;5048850;28;20128;-83
2021/06/10 06:51:29;;;;;;;13.13;7.80;;;;;;;;;;5031030;28;20103;-82
2021/06/10 06:53:56;;;;;;;16.42;6.85;;;;;;;;;;5049828;28;20033;-83
2021/06/10 06:56:24;;;;;;;19.00;7.63;;;;;;;;;;5048610;28;20132;-81
2021/06/10 06:58:59;;;;;;;15.85;7.40;;;;;;;;;;5033175;28;20048;-81
2021/06/10 07:01:25;;;;;;;15.00;7.63;;;;;;;;;;5017664;28;20037;-82
2021/06/10 07:03:52;;;;;;;19.98;6.70;;;;;;;;;;5055282;28;20028;-82
2021/06/10 07:06:22;;;;;;;21.00;7.22;;;;;;;;;;5052451;28;20573;-81
2021/06/10 07:08:50;;;;;;;20.77;7.68;;;;;;;;;;5060533;28;20036;-82
2021/06/10 07:11:16;;;;;;;18.08;7.82;;;;;;;;;;5066470;28;20037;-82
2021/06/10 07:13:44;;;;;;;16.70;8.40;;;;;;;;;;5053455;28;20036;-81
2021/06/10 07:16:10;;;;;;;16.50;8.32;;;;;;;;;;5056628;28;20044;-86
2021/06/10 07:18:36;;;;;;;20.35;8.68;;;;;;;;;;5053514;28;20113;-81
2021/06/10 07:21:05;;;;;;;19.55;8.90;;;;;;;;;;5051444;28;20036;-81
2021/06/10 07:23:40;;;;;;;17.42;9.05;;;;;;;;;;5070381;28;20040;-80
2021/06/10 07:26:06;;;;;;;15.18;9.50;;;;;;;;;;5040256;28;20127;-81
2021/06/10 07:28:32;;;;;;;18.05;9.30;;;;;;;;;;5057267;28;20040;-81
2021/06/10 07:31:00;;;;;;;18.75;9.38;;;;;;;;;;5059977;28;20060;-83
2021/06/10 07:33:26;;;;;;;21.50;9.88;;;;;;;;;;5055117;28;20078;-84
2021/06/10 07:35:55;;;;;;;16.95;8.82;;;;;;;;;;5041638;28;20063;-85
2021/06/10 07:38:22;;;;;;;20.38;9.32;;;;;;;;;;5059130;28;20472;-81
2021/06/10 07:40:48;;;;;;;18.25;8.73;;;;;;;;;;5066636;28;20043;-82
2021/06/10 07:43:14;;;;;;;22.38;8.80;;;;;;;;;;5077084;28;20025;-80
2021/06/10 07:48:17;;;;;;;22.42;8.57;;;;;;;;;;5073282;28;20095;-83
2021/06/10 07:50:54;;;;;;;16.35;8.70;;;;;;;;;;5050490;22;20088;-82
2021/06/10 07:53:23;;;;;;;16.65;8.30;;;;;;;;;;5051937;28;20044;-84
2021/06/10 07:55:55;;;;;;;22.90;9.13;;;;;;;;;;5057101;22;20540;-81
2021/06/10 07:58:21;;;;;;;15.15;8.75;;;;;;;;;;4993801;28;20042;-84
2021/06/10 08:00:47;;;;;;;18.23;8.95;;;;;;;;;;4996800;28;20248;-84
2021/06/10 08:03:13;;;;;;;16.90;8.68;;;;;;;;;;4995974;28;20029;-82
2021/06/10 08:05:41;;;;;;;22.55;9.10;;;;;;;;;;4983323;28;20030;-84
2021/06/10 08:08:07;;;;;;;27.15;9.05;;;;;;;;;;4995524;28;20050;-85
2021/06/10 08:10:34;;;;;;;19.42;9.88;;;;;;;;;;4998600;28;20119;-82
2021/06/10 08:12:59;;;;;;;21.77;10.20;;;;;;;;;;4997441;28;20120;-83
2021/06/10 08:15:25;;;;;;;20.23;10.40;;;;;;;;;;4996425;28;20038;-82
2021/06/10 08:17:52;;;;;;;19.33;10.57;;;;;;;;;;4995183;28;20038;-79
2021/06/10 08:20:19;;;;;;;26.70;11.60;;;;;;;;;;4997364;28;20042;-79
2021/06/10 08:22:45;;;;;;;26.08;11.10;;;;;;;;;;4973962;28;20041;-81
2021/06/10 08:25:10;;;;;;;25.83;12.35;;;;;;;;;;4997923;28;20054;-81
2021/06/10 08:27:37;;;;;;;24.23;11.25;;;;;;;;;;4975676;28;20112;-81
2021/06/10 08:30:05;;;;;;;22.05;11.13;;;;;;;;;;4966549;28;20034;-86
2021/06/10 08:32:33;;;;;;;27.60;11.32;;;;;;;;;;4996888;28;20042;-78
2021/06/10 08:35:03;;;;;;;24.90;11.35;;;;;;;;;;4992321;28;20038;-80
2021/06/10 08:37:31;;;;;;;26.70;11.75;;;;;;;;;;4994391;28;20057;-77
2021/06/10 08:39:57;;;;;;;26.02;11.73;;;;;;;;;;4997142;28;20380;-78
2021/06/10 08:42:23;;;;;;;26.13;12.63;;;;;;;;;;4995710;28;20039;-77
2021/06/10 08:44:50;;;;;;;32.17;13.15;;;;;;;;;;4996600;28;20038;-79
2021/06/10 08:47:20;;;;;;;30.85;13.70;;;;;;;;;;4995278;28;20041;-78
2021/06/10 08:49:48;;;;;;;26.08;12.70;;;;;;;;;;4998355;28;20045;-77
2021/06/10 08:52:13;;;;;;;30.75;13.80;;;;;;;;;;4994874;28;20042;-78
2021/06/10 08:54:40;;;;;;;32.00;13.13;;;;;;;;;;4979140;28;20045;-78
2021/06/10 08:57:07;;;;;;;25.58;13.63;;;;;;;;;;4997396;28;20083;-76
2021/06/10 08:59:33;;;;;;;34.60;13.52;;;;;;;;;;4962674;28;20038;-83
2021/06/10 09:02:00;;;;;;;27.75;13.30;;;;;;;;;;4976354;28;20050;-87
2021/06/10 09:04:27;;;;;;;27.08;13.70;;;;;;;;;;4997605;28;20176;-79
2021/06/10 09:06:54;;;;;;;26.67;13.57;;;;;;;;;;4995385;28;20042;-77
2021/06/10 09:09:40;;;;;;;26.40;13.88;;;;;;;;;;4995477;28;20022;-77
2021/06/10 09:12:11;;;;;;;25.25;13.00;;;;;;;;;;5000367;28;20052;-78
2021/06/10 09:14:57;;;;;;;26.67;13.27;;;;;;;;;;5001606;28;20149;-78
2021/06/10 09:17:30;;;;;;;27.48;13.40;;;;;;;;;;4985472;28;20139;-75
2021/06/10 09:19:57;;;;;;;31.48;13.32;;;;;;;;;;4996354;28;20035;-77
2021/06/10 09:22:25;;;;;;;28.02;13.85;;;;;;;;;;4994316;28;20138;-80
2021/06/10 09:24:51;;;;;;;24.80;12.55;;;;;;;;;;4991385;28;20035;-79
2021/06/10 09:27:18;;;;;;;26.50;12.90;;;;;;;;;;5000477;28;20127;-80
2021/06/10 09:29:50;;;;;;;35.13;13.77;;;;;;;;;;5007313;28;20030;-84
2021/06/10 09:32:17;;;;;;;29.33;13.30;;;;;;;;;;5006425;28;20034;-83
2021/06/10 09:34:48;;;;;;;22.80;12.23;;;;;;;;;;4967158;28;20037;-83
2021/06/10 09:37:23;;;;;;;30.20;13.45;;;;;;;;;;4998704;28;20041;-82
2021/06/10 09:39:50;;;;;;;26.17;12.05;;;;;;;;;;4968972;28;20031;-81
2021/06/10 09:42:21;;;;;;;27.73;12.73;;;;;;;;;;4971599;28;20038;-77
2021/06/10 09:44:54;;;;;;;24.42;12.18;;;;;;;;;;4987086;28;20034;-84
2021/06/10 09:47:27;;;;;;;28.98;12.38;;;;;;;;;;4996073;28;20033;-81
2021/06/10 09:49:52;;;;;;;23.92;11.23;;;;;;;;;;5003888;28;20426;-83
2021/06/10 09:52:20;;;;;;;20.05;12.00;;;;;;;;;;4997202;28;20044;-76
2021/06/10 09:54:52;;;;;;;20.52;11.60;;;;;;;;;;4964833;28;20133;-76
2021/06/10 09:57:17;;;;;;;21.55;11.40;;;;;;;;;;4999020;28;20054;-77
2021/06/10 09:59:53;;;;;;;21.48;11.75;;;;;;;;;;4995268;28;20038;-80
2021/06/10 10:02:24;;;;;;;22.00;11.80;;;;;;;;;;4978540;28;20034;-74
2021/06/10 10:05:04;;;;;;;28.73;11.38;;;;;;;;;;4960392;28;20044;-74
2021/06/10 10:07:31;;;;;;;22.60;11.23;;;;;;;;;;4996272;28;20119;-78
2021/06/10 10:10:07;;;;;;;21.10;10.93;;;;;;;;;;4984811;28;20037;-77
2021/06/10 10:12:34;;;;;;;25.23;12.20;;;;;;;;;;4997672;28;20038;-79
2021/06/10 10:15:00;;;;;;;21.58;11.45;;;;;;;;;;5007340;28;20490;-76
2021/06/10 10:17:27;;;;;;;23.33;12.02;;;;;;;;;;5007439;28;20037;-75
2021/06/10 10:19:55;;;;;;;33.80;11.30;;;;;;;;;;5002320;28;20501;-76
2021/06/10 10:22:22;;;;;;;20.05;11.07;;;;;;;;;;4996679;28;20030;-78
2021/06/10 10:24:53;;;;;;;24.67;11.32;;;;;;;;;;4989459;28;20082;-76
2021/06/10 10:27:26;;;;;;;25.48;12.02;;;;;;;;;;4986036;28;20077;-77
2021/06/10 10:29:53;;;;;;;29.55;12.68;;;;;;;;;;4983758;28;20065;-76
2021/06/10 10:32:21;;;;;;;28.17;11.77;;;;;;;;;;4990097;28;20081;-75
2021/06/10 10:34:47;;;;;;;22.85;11.38;;;;;;;;;;4973441;28;20038;-81
2021/06/10 10:37:26;;;;;;;20.75;11.50;;;;;;;;;;4973089;28;20049;-83
2021/06/10 10:39:53;;;;;;;25.98;11.55;;;;;;;;;;4972148;28;20089;-73
2021/06/10 10:42:32;;;;;;;26.00;10.73;;;;;;;;;;4986436;28;20041;-75
2021/06/10 10:45:11;;;;;;;24.58;11.50;;;;;;;;;;4992031;28;20172;-76
2021/06/10 10:47:42;;;;;;;19.55;10.65;;;;;;;;;;5007749;28;20038;-75
2021/06/10 10:50:08;;;;;;;22.70;10.95;;;;;;;;;;4991380;28;20125;-75
2021/06/10 10:52:37;;;;;;;24.02;10.98;;;;;;;;;;4997669;28;20034;-80
2021/06/10 10:55:14;;;;;;;26.40;11.30;;;;;;;;;;4972078;28;20108;-76
2021/06/10 10:57:41;;;;;;;26.30;10.68;;;;;;;;;;5000206;28;20042;-78
2021/06/10 11:00:08;;;;;;;28.92;10.55;;;;;;;;;;5001045;28;20042;-78
2021/06/10 11:02:39;;;;;;;17.75;10.60;;;;;;;;;;4998707;28;20046;-76
2021/06/10 11:05:07;;;;;;;22.65;10.95;;;;;;;;;;4998402;28;20069;-78
2021/06/10 11:07:34;;;;;;;25.40;11.52;;;;;;;;;;4998172;28;20058;-76
2021/06/10 11:10:02;;;;;;;27.73;11.70;;;;;;;;;;4999055;28;20138;-77
2021/06/10 11:12:49;;;;;;;24.70;11.15;;;;;;;;;;4994399;28;20049;-79
2021/06/10 11:15:23;;;;;;;22.45;10.43;;;;;;;;;;4980460;28;20049;-83
2021/06/10 11:17:51;;;;;;;18.45;11.60;;;;;;;;;;4995645;28;20033;-82
2021/06/10 11:20:19;;;;;;;25.52;11.15;;;;;;;;;;4979212;28;20138;-82
2021/06/10 11:22:46;;;;;;;23.45;11.75;;;;;;;;;;4996743;28;20129;-81
2021/06/10 11:25:36;;;;;;;26.80;12.05;;;;;;;;;;4976681;28;20066;-80
2021/06/10 11:28:09;;;;;;;28.38;13.13;;;;;;;;;;4993015;28;20085;-80
2021/06/10 11:30:37;;;;;;;27.00;11.68;;;;;;;;;;4994279;28;20051;-79
2021/06/10 11:33:07;;;;;;;22.65;12.50;;;;;;;;;;4998335;28;20171;-77
2021/06/10 11:35:37;;;;;;;25.23;12.82;;;;;;;;;;4997812;28;20037;-78
2021/06/10 11:38:05;;;;;;;;;;;;;;;;;;4999465;28;20038;-78
2021/06/10 11:40:31;;;;;;;30.70;13.88;;;;;;;;;;4975943;28;19937;-78
2021/06/10 11:42:57;;;;;;;26.67;13.43;;;;;;;;;;4963707;28;20040;-80
2021/06/10 11:45:27;;;;;;;28.52;13.52;;;;;;;;;;4976771;28;20030;-70
2021/06/10 11:47:54;;;;;;;23.75;13.32;;;;;;;;;;4995607;28;20124;-81
2021/06/10 11:50:27;;;;;;;31.70;13.38;;;;;;;;;;4980821;28;20053;-75
2021/06/10 11:52:53;;;;;;;;;;;;;;;;;;4998217;28;20069;-77
2021/06/10 11:55:27;;;;;;;27.42;13.05;;;;;;;;;;4991068;28;19975;-80
2021/06/10 11:57:56;;;;;;;25.83;12.75;;;;;;;;;;5003934;28;20040;-79
2021/06/10 12:00:27;;;;;;;25.50;13.10;;;;;;;;;;4999434;28;20046;-83
2021/06/10 12:03:00;;;;;;;23.33;12.68;;;;;;;;;;4996264;28;20038;-82
2021/06/10 12:05:27;;;;;;;24.70;12.00;;;;;;;;;;5002808;28;20599;-82
2021/06/10 12:08:09;;;;;;;28.98;12.27;;;;;;;;;;4996962;28;20038;-83
2021/06/10 12:10:35;;;;;;;25.45;12.18;;;;;;;;;;4974941;28;20038;-78
2021/06/10 12:13:03;;;;;;;20.80;11.70;;;;;;;;;;4992380;28;20359;-83
2021/06/10 12:15:32;;;;;;;25.40;12.05;;;;;;;;;;4977575;28;20068;-77
2021/06/10 12:18:02;;;;;;;30.00;11.38;;;;;;;;;;4966820;28;20043;-81
2021/06/10 12:20:29;;;;;;;28.52;12.15;;;;;;;;;;4977438;28;20084;-82
2021/06/10 12:22:56;;;;;;;21.75;11.35;;;;;;;;;;4991781;28;20186;-78
2021/06/10 12:25:26;;;;;;;27.00;11.13;;;;;;;;;;4970701;28;20102;-78
2021/06/10 12:27:54;;;;;;;28.77;10.68;;;;;;;;;;5016742;23;20064;-78
2021/06/10 12:30:23;;;;;;;23.70;11.13;;;;;;;;;;5012979;28;20543;-77
2021/06/10 12:32:51;;;;;;;22.08;11.27;;;;;;;;;;4982393;28;20041;-79
2021/06/10 12:35:18;;;;;;;24.08;10.15;;;;;;;;;;4992660;28;20038;-77
2021/06/10 12:37:53;;;;;;;22.10;10.38;;;;;;;;;;5005175;28;20044;-81
2021/06/10 12:40:20;;;;;;;22.63;11.15;;;;;;;;;;5024354;28;20048;-81
2021/06/10 12:43:05;;;;;;;22.35;9.82;;;;;;;;;;4997456;28;20042;-79
2021/06/10 12:45:34;;;;;;;20.25;10.13;;;;;;;;;;5018833;28;20040;-81
2021/06/10 12:48:01;;;;;;;23.38;10.43;;;;;;;;;;5021385;28;20057;-80
2021/06/10 12:50:29;;;;;;;29.50;10.32;;;;;;;;;;5012245;28;20042;-81
2021/06/10 12:53:07;;;;;;;25.70;9.98;;;;;;;;;;4988561;28;20046;-80
2021/06/10 12:55:34;;;;;;;19.55;10.23;;;;;;;;;;5012394;28;20053;-79
2021/06/10 12:58:00;;;;;;;22.42;9.70;;;;;;;;;;5014576;28;20401;-80
2021/06/10 13:00:31;;;;;;;19.80;9.63;;;;;;;;;;5021341;28;20044;-82
2021/06/10 13:03:03;;;;;;;23.70;10.02;;;;;;;;;;5013639;28;20524;-79
2021/06/10 13:05:32;;;;;;;;;;;;;;;;;;5028337;28;20148;-74
2021/06/10 13:08:09;;;;;;;17.95;9.82;;;;;;;;;;5023785;22;20030;-74
2021/06/10 13:10:40;;;;;;;26.52;9.38;;;;;;;;;;5020176;28;20045;-75
2021/06/10 13:13:07;;;;;;;20.48;9.02;;;;;;;;;;5020256;28;20041;-73
2021/06/10 13:15:37;;;;;;;26.33;9.43;;;;;;;;;;5002728;28;20037;-76
2021/06/10 13:18:11;;;;;;;21.02;9.68;;;;;;;;;;5037116;28;20042;-81
2021/06/10 13:20:45;;;;;;;20.95;10.80;;;;;;;;;;5021097;28;20038;-77
2021/06/10 13:23:15;;;;;;;24.75;11.65;;;;;;;;;;5019607;28;20033;-77
2021/06/10 13:25:42;;;;;;;19.88;10.15;;;;;;;;;;5019982;28;20386;-77
2021/06/10 13:28:12;;;;;;;20.27;11.00;;;;;;;;;;5036236;28;20041;-77
2021/06/10 13:30:39;;;;;;;21.35;11.55;;;;;;;;;;5021034;28;20041;-75
2021/06/10 13:33:07;;;;;;;18.90;10.63;;;;;;;;;;5006539;28;20107;-74
2021/06/10 13:35:40;;;;;;;24.75;11.32;;;;;;;;;;5020940;28;20144;-75
2021/06/10 13:38:07;;;;;;;23.50;11.30;;;;;;;;;;5019752;28;20037;-72
2021/06/10 13:40:33;;;;;;;21.95;11.23;;;;;;;;;;4990265;28;20038;-74
2021/06/10 13:43:00;;;;;;;21.48;10.35;;;;;;;;;;5006131;28;20033;-70
2021/06/10 13:45:30;;;;;;;23.50;11.48;;;;;;;;;;5015046;28;20474;-72
2021/06/10 13:47:57;;;;;;;24.00;11.85;;;;;;;;;;5022342;28;20119;-73
2021/06/10 13:50:24;;;;;;;21.83;10.90;;;;;;;;;;5014185;28;20068;-73
2021/06/10 13:52:53;;;;;;;26.27;12.20;;;;;;;;;;5020333;28;20128;-74
2021/06/10 13:55:20;;;;;;;24.88;11.73;;;;;;;;;;5021016;28;20115;-73
2021/06/10 13:57:46;;;;;;;19.75;11.45;;;;;;;;;;5004106;28;20033;-73